Time,TemperatureF,DewpointF,PressureIn,WindDirection,WindDirectionDegrees,WindSpeedMPH,WindSpeedGustMPH,Humidity,HourlyPrecipIn,Conditions,Clouds,dailyrainin,SoftwareType,DateUTC
2013-09-13 00:22:00,75.0,62.0,-100.00,North,-999,-999.0,-999.0,64,0.00,,,0.00,,2013-09-13 05:22:00,
2013-09-13 00:53:00,74.0,63.0,-100.00,North,-999,-999.0,-999.0,68,0.00,,,0.00,,2013-09-13 05:53:00,
2013-09-13 01:22:00,73.0,63.0,-100.00,North,-999,-999.0,-999.0,69,0.00,,,0.00,,2013-09-13 06:22:00,
2013-09-13 01:52:00,72.0,66.0,-100.00,North,-999,-999.0,-999.0,81,0.00,,,0.00,,2013-09-13 06:52:00,
2013-09-13 02:22:00,72.0,65.0,-100.00,North,-999,-999.0,-999.0,78,0.00,,,0.00,,2013-09-13 07:22:00,
2013-09-13 02:52:00,72.0,68.0,-100.00,North,-999,-999.0,-999.0,86,0.00,,,0.00,,2013-09-13 07:52:00,
2013-09-13 03:02:00,72.0,68.0,-100.00,North,-999,-999.0,-999.0,86,0.00,,,0.00,,2013-09-13 08:02:00,
2013-09-13 03:22:00,72.0,66.0,-100.00,North,-999,-999.0,-999.0,83,0.00,,,0.00,,2013-09-13 08:22:00,
2013-09-13 03:52:00,71.0,66.0,-100.00,North,-999,-999.0,-999.0,85,0.00,,,0.00,,2013-09-13 08:52:00,
2013-09-13 04:21:00,70.0,67.0,-100.00,North,-999,-999.0,-999.0,91,0.00,,,0.00,,2013-09-13 09:21:00,
2013-09-13 04:53:00,70.0,66.0,-100.00,North,-999,-999.0,-999.0,89,0.00,,,0.00,,2013-09-13 09:53:00,
2013-09-13 05:23:00,68.0,67.0,-100.00,North,-999,-999.0,-999.0,97,0.00,,,0.00,,2013-09-13 10:23:00,
2013-09-13 05:52:00,68.0,68.0,-100.00,North,-999,-999.0,-999.0,98,0.00,,,0.00,,2013-09-13 10:52:00,
2013-09-13 06:22:00,68.0,68.0,-100.00,North,-999,-999.0,-999.0,100,0.00,,,0.00,,2013-09-13 11:22:00,
2013-09-13 06:52:00,67.0,67.0,-100.00,North,-999,-999.0,-999.0,100,0.00,,,0.00,,2013-09-13 11:52:00,
2013-09-13 07:21:00,67.0,67.0,-100.00,North,-999,-999.0,-999.0,100,0.00,,,0.00,,2013-09-13 12:21:00,
2013-09-13 07:52:00,66.0,66.0,-100.00,North,-999,-999.0,-999.0,100,0.00,,,0.00,,2013-09-13 12:52:00,
2013-09-13 08:21:00,68.0,68.0,-100.00,North,-999,-999.0,-999.0,100,0.00,,,0.00,,2013-09-13 13:21:00,
2013-09-13 08:52:00,70.0,70.0,-100.00,North,-999,-999.0,-999.0,100,0.00,,,0.00,,2013-09-13 13:52:00,
2013-09-13 09:22:00,74.0,73.0,-100.00,North,-999,-999.0,-999.0,95,0.00,,,0.00,,2013-09-13 14:22:00,
2013-09-13 09:52:00,79.0,73.0,-100.00,North,-999,-999.0,-999.0,82,0.00,,,0.00,,2013-09-13 14:52:00,
2013-09-13 10:22:00,84.0,73.0,-100.00,North,-999,-999.0,-999.0,69,0.00,,,0.00,,2013-09-13 15:22:00,
2013-09-13 10:53:00,87.0,70.0,-100.00,North,-999,-999.0,-999.0,58,0.00,,,0.00,,2013-09-13 15:53:00,
2013-09-13 11:24:00,88.0,69.0,-100.00,North,-999,-999.0,-999.0,53,0.00,,,0.00,,2013-09-13 16:24:00,
2013-09-13 11:54:00,90.0,67.0,-100.00,North,-999,-999.0,-999.0,46,0.00,,,0.00,,2013-09-13 16:54:00,
2013-09-13 12:53:00,92.0,64.0,-100.00,North,-999,-999.0,-999.0,40,0.00,,,0.00,,2013-09-13 17:53:00,
2013-09-13 13:22:00,93.0,62.0,-100.00,North,-999,-999.0,-999.0,36,0.00,,,0.00,,2013-09-13 18:22:00,
2013-09-13 13:52:00,97.0,60.0,-100.00,North,-999,-999.0,-999.0,30,0.00,,,0.00,,2013-09-13 18:52:00,
2013-09-13 14:22:00,96.0,59.0,-100.00,North,-999,-999.0,-999.0,29,0.00,,,0.00,,2013-09-13 19:22:00,
2013-09-13 14:52:00,99.0,58.0,-100.00,North,-999,-999.0,-999.0,26,0.00,,,0.00,,2013-09-13 19:52:00,
2013-09-13 16:21:00,99.0,57.0,-100.00,North,-999,-999.0,-999.0,25,0.00,,,0.00,,2013-09-13 21:21:00,
2013-09-13 16:44:00,99.0,57.0,-100.00,North,-999,-999.0,-999.0,25,0.00,,,0.00,,2013-09-13 21:44:00,
2013-09-13 16:54:00,99.0,57.0,-100.00,North,-999,-999.0,-999.0,25,0.00,,,0.00,,2013-09-13 21:54:00,
2013-09-13 17:04:00,99.0,57.0,-100.00,North,-999,-999.0,-999.0,25,0.00,,,0.00,,2013-09-13 22:04:00,
2013-09-13 17:24:00,98.0,57.0,-100.00,North,-999,-999.0,-999.0,26,0.00,,,0.00,,2013-09-13 22:24:00,
2013-09-13 17:53:00,99.0,58.0,-100.00,North,-999,-999.0,-999.0,26,-99.99,,,0.00,,2013-09-13 22:53:00,
2013-09-13 18:22:00,97.0,57.0,-100.00,North,-999,-999.0,-999.0,27,0.00,,,0.00,,2013-09-13 23:22:00,
2013-09-13 18:52:00,95.0,58.0,-100.00,North,-999,-999.0,-999.0,29,0.00,,,0.00,,2013-09-13 23:52:00,
2013-09-13 19:22:00,93.0,58.0,-100.00,North,-999,-999.0,-999.0,31,0.00,,,0.00,,2013-09-14 00:22:00,
2013-09-13 19:52:00,90.0,60.0,-100.00,North,-999,-999.0,-999.0,36,0.00,,,0.00,,2013-09-14 00:52:00,
2013-09-13 20:21:00,87.0,61.0,-100.00,North,-999,-999.0,-999.0,42,0.00,,,0.00,,2013-09-14 01:21:00,
2013-09-13 20:52:00,85.0,61.0,-100.00,North,-999,-999.0,-999.0,45,0.00,,,0.00,,2013-09-14 01:52:00,
2013-09-13 21:22:00,83.0,63.0,-100.00,North,-999,-999.0,-999.0,50,0.00,,,0.00,,2013-09-14 02:22:00,
2013-09-13 21:52:00,80.0,61.0,-100.00,North,-999,-999.0,-999.0,51,0.00,,,0.00,,2013-09-14 02:52:00,
2013-09-13 22:22:00,80.0,60.0,-100.00,North,-999,-999.0,-999.0,51,0.00,,,0.00,,2013-09-14 03:22:00,
2013-09-13 22:44:00,79.0,61.0,-100.00,North,-999,-999.0,-999.0,53,0.00,,,0.00,,2013-09-14 03:44:00,
2013-09-13 22:54:00,79.0,61.0,-100.00,North,-999,-999.0,-999.0,53,0.00,,,0.00,,2013-09-14 03:54:00,
2013-09-13 23:24:00,77.0,61.0,-100.00,North,-999,-999.0,-999.0,59,0.00,,,0.00,,2013-09-14 04:24:00,
2013-09-13 23:54:00,75.0,62.0,-100.00,North,-999,-999.0,-999.0,63,-99.99,,,0.00,,2013-09-14 04:54:00,